createdAt,value
2022-09-21T00:00:12.065Z,2.30
2022-09-21T00:00:37.651Z,2.55
2022-09-21T00:01:05.822Z,2.53
2022-09-21T00:01:29.749Z,2.70
2022-09-21T00:01:54.726Z,2.35
2022-09-21T00:02:20.530Z,2.10
2022-09-21T00:02:46.890Z,2.15
2022-09-21T00:03:09.750Z,2.22
2022-09-21T00:03:34.770Z,2.10
2022-09-21T00:03:58.880Z,2.30
2022-09-21T00:04:21.635Z,2.50
2022-09-21T00:04:44.310Z,2.30
2022-09-21T00:05:10.091Z,2.20
2022-09-21T00:05:32.796Z,1.98
2022-09-21T00:06:02.935Z,1.98
2022-09-21T00:06:26.562Z,1.90
2022-09-21T00:06:49.321Z,1.70
2022-09-21T00:07:15.190Z,1.67
2022-09-21T00:07:37.953Z,2.00
2022-09-21T00:08:01.131Z,1.95
2022-09-21T00:08:26.195Z,1.80
2022-09-21T00:08:48.850Z,2.00
2022-09-21T00:09:11.459Z,1.90
2022-09-21T00:09:34.186Z,1.80
2022-09-21T00:09:59.232Z,1.80
2022-09-21T00:10:25.122Z,1.85
2022-09-21T00:10:50.406Z,1.83
2022-09-21T00:11:15.496Z,1.77
2022-09-21T00:11:38.198Z,1.60
2022-09-21T00:12:03.350Z,1.60
2022-09-21T00:12:28.270Z,1.73
2022-09-21T00:12:51.000Z,1.80
2022-09-21T00:13:14.028Z,1.92
2022-09-21T00:13:38.083Z,1.63
2022-09-21T00:14:04.686Z,1.70
2022-09-21T00:14:28.683Z,1.60
2022-09-21T00:14:51.349Z,1.60
2022-09-21T00:15:17.088Z,1.83
2022-09-21T00:15:42.461Z,1.60
2022-09-21T00:16:08.525Z,1.40
2022-09-21T00:16:32.301Z,1.50
2022-09-21T00:16:55.627Z,1.52
2022-09-21T00:17:18.486Z,1.75
2022-09-21T00:17:41.203Z,1.60
2022-09-21T00:18:05.448Z,1.50
2022-09-21T00:18:28.129Z,1.55
2022-09-21T00:18:50.842Z,1.63
2022-09-21T00:19:13.568Z,1.60
2022-09-21T00:19:36.250Z,1.80
2022-09-21T00:20:01.180Z,1.70
2022-09-21T00:20:25.150Z,1.83
2022-09-21T00:20:49.224Z,1.60
2022-09-21T00:21:16.975Z,1.63
2022-09-21T00:21:39.676Z,1.50
2022-09-21T00:22:02.386Z,1.50
2022-09-21T00:22:25.450Z,1.60
2022-09-21T00:22:48.325Z,1.80
2022-09-21T00:23:11.090Z,1.65
2022-09-21T00:23:35.376Z,1.90
2022-09-21T00:23:59.543Z,2.00
2022-09-21T00:24:22.208Z,2.20
2022-09-21T00:24:45.320Z,2.20
2022-09-21T00:25:08.805Z,2.33
2022-09-21T00:25:31.480Z,2.30
2022-09-21T00:25:58.884Z,2.25
2022-09-21T00:26:22.709Z,2.35
2022-09-21T00:26:45.409Z,2.28
2022-09-21T00:27:11.280Z,2.60
2022-09-21T00:27:34.055Z,2.33
2022-09-21T00:27:56.731Z,2.40
2022-09-21T00:28:19.396Z,2.40
2022-09-21T00:28:44.566Z,2.20
2022-09-21T00:29:07.322Z,2.35
2022-09-21T00:29:30.093Z,2.38
2022-09-21T00:29:55.055Z,2.40
2022-09-21T00:30:17.925Z,2.47
2022-09-21T00:30:43.131Z,2.20
2022-09-21T00:31:07.210Z,2.30
2022-09-21T00:31:33.140Z,2.38
2022-09-21T00:31:55.968Z,2.22
2022-09-21T00:32:20.341Z,2.20
2022-09-21T00:32:43.032Z,2.35
2022-09-21T00:33:12.390Z,2.15
2022-09-21T00:33:35.149Z,2.00
2022-09-21T00:34:00.654Z,2.20
2022-09-21T00:34:25.770Z,2.33
2022-09-21T00:34:50.730Z,2.63
2022-09-21T00:35:13.439Z,2.47
2022-09-21T00:35:39.129Z,2.20
2022-09-21T00:36:07.165Z,2.30
2022-09-21T00:36:29.920Z,2.53
2022-09-21T00:36:55.595Z,2.40
2022-09-21T00:37:18.260Z,2.00
2022-09-21T00:37:41.044Z,2.15
2022-09-21T00:38:03.684Z,2.20
2022-09-21T00:38:26.399Z,2.13
2022-09-21T00:38:52.517Z,2.22
2022-09-21T00:39:15.238Z,2.30
2022-09-21T00:39:37.939Z,2.25
2022-09-21T00:40:00.729Z,2.17
2022-09-21T00:40:23.629Z,1.92
2022-09-21T00:40:46.391Z,1.90
2022-09-21T00:41:09.453Z,2.20
2022-09-21T00:41:36.490Z,2.30
2022-09-21T00:41:59.240Z,2.40
2022-09-21T00:42:26.739Z,2.47
2022-09-21T00:42:49.828Z,2.40
2022-09-21T00:43:13.712Z,2.17
2022-09-21T00:43:37.283Z,2.17
2022-09-21T00:44:33.987Z,2.35
2022-09-21T00:44:56.631Z,2.20
2022-09-21T00:45:22.004Z,2.15
2022-09-21T00:45:45.473Z,2.40
2022-09-21T00:46:12.798Z,2.45
2022-09-21T00:46:35.753Z,2.40
2022-09-21T00:47:01.429Z,2.38
2022-09-21T00:47:26.863Z,2.22
2022-09-21T00:47:50.713Z,2.47
2022-09-21T00:48:15.535Z,2.80
2022-09-21T00:48:38.235Z,2.67
2022-09-21T00:49:00.960Z,2.50
2022-09-21T00:49:23.775Z,2.30
2022-09-21T00:49:51.200Z,2.30
2022-09-21T00:50:16.496Z,2.40
2022-09-21T00:50:40.321Z,2.50
2022-09-21T00:51:05.440Z,2.63
2022-09-21T00:51:28.156Z,2.60
2022-09-21T00:51:51.549Z,2.40
2022-09-21T00:52:14.978Z,2.25
2022-09-21T00:52:40.095Z,2.03
2022-09-21T00:53:02.836Z,2.30
2022-09-21T00:53:25.715Z,2.40
2022-09-21T00:53:48.683Z,2.30
2022-09-21T00:54:15.268Z,2.50
2022-09-21T00:54:39.583Z,2.35
2022-09-21T00:55:04.648Z,2.05
2022-09-21T00:55:29.423Z,2.20
2022-09-21T00:55:55.264Z,2.50
2022-09-21T00:56:17.971Z,2.30
2022-09-21T00:56:40.610Z,2.33
2022-09-21T00:57:05.923Z,2.30
2022-09-21T00:57:31.407Z,2.30
2022-09-21T00:57:54.883Z,2.38
2022-09-21T00:58:19.428Z,2.45
2022-09-21T00:58:45.143Z,2.33
2022-09-21T00:59:07.823Z,2.30
2022-09-21T00:59:31.368Z,2.20
2022-09-21T00:59:55.853Z,2.47
2022-09-21T01:00:18.662Z,2.40
2022-09-21T01:00:41.507Z,2.35
2022-09-21T01:01:04.229Z,2.35
2022-09-21T01:01:27.111Z,2.25
2022-09-21T01:01:49.951Z,2.50
2022-09-21T01:02:12.733Z,2.30
2022-09-21T01:02:35.458Z,2.58
2022-09-21T01:03:01.622Z,2.50
2022-09-21T01:03:25.928Z,2.35
2022-09-21T01:03:48.926Z,2.42
2022-09-21T01:04:12.023Z,2.40
2022-09-21T01:04:34.802Z,2.17
2022-09-21T01:04:57.485Z,2.60
2022-09-21T01:05:20.273Z,2.22
2022-09-21T01:05:42.989Z,2.20
2022-09-21T01:06:06.033Z,2.28
2022-09-21T01:06:28.658Z,2.33
2022-09-21T01:06:51.698Z,2.30
2022-09-21T01:07:18.923Z,2.17
2022-09-21T01:07:43.888Z,2.00
2022-09-21T01:08:10.148Z,2.10
2022-09-21T01:08:35.430Z,1.80
2022-09-21T01:08:59.368Z,1.80
2022-09-21T01:09:24.497Z,2.05
2022-09-21T01:09:49.462Z,2.40
2022-09-21T01:10:13.192Z,1.90
2022-09-21T01:10:42.947Z,1.83
2022-09-21T01:11:24.222Z,1.65
2022-09-21T01:11:53.507Z,2.00
2022-09-21T01:12:26.783Z,1.70
2022-09-21T01:12:59.607Z,1.83
2022-09-21T01:13:30.922Z,1.65
2022-09-21T01:14:13.827Z,1.70
2022-09-21T01:14:57.565Z,1.80
2022-09-21T01:15:32.467Z,1.67
2022-09-21T01:15:58.594Z,1.55
2022-09-21T01:16:23.405Z,1.90
2022-09-21T01:16:50.032Z,1.80
2022-09-21T01:17:15.311Z,1.80
2022-09-21T01:17:42.604Z,1.80
2022-09-21T01:18:12.350Z,1.67
2022-09-21T01:18:38.412Z,1.95
2022-09-21T01:19:05.944Z,1.80
2022-09-21T01:19:40.607Z,1.90
2022-09-21T01:20:26.408Z,1.60
2022-09-21T01:21:16.257Z,1.60
2022-09-21T01:21:39.612Z,1.60
2022-09-21T01:22:06.040Z,1.60
2022-09-21T01:22:34.413Z,1.70
2022-09-21T01:23:13.208Z,1.50
2022-09-21T01:24:12.817Z,1.92
2022-09-21T01:24:48.634Z,1.70
2022-09-21T01:25:15.672Z,1.45
2022-09-21T01:25:42.112Z,1.92
2022-09-21T01:26:08.968Z,1.98
2022-09-21T01:26:38.117Z,1.85
2022-09-21T01:27:14.612Z,1.60
2022-09-21T01:27:57.872Z,1.70
2022-09-21T01:28:24.679Z,1.90
2022-09-21T01:29:09.532Z,1.85
2022-09-21T01:29:32.327Z,1.80
2022-09-21T01:30:00.767Z,1.70
2022-09-21T01:30:23.566Z,1.60
2022-09-21T01:30:49.137Z,1.83
2022-09-21T01:31:14.081Z,2.03
2022-09-21T01:31:41.582Z,1.90
2022-09-21T01:32:07.546Z,1.77
2022-09-21T01:32:32.317Z,1.83
2022-09-21T01:32:56.952Z,1.77
2022-09-21T01:33:23.809Z,1.77
2022-09-21T01:33:48.166Z,1.85
2022-09-21T01:34:12.554Z,2.10
2022-09-21T01:34:38.659Z,1.75
2022-09-21T01:35:03.313Z,1.80
2022-09-21T01:35:30.868Z,1.90
2022-09-21T01:35:55.658Z,1.80
2022-09-21T01:36:21.442Z,1.80
2022-09-21T01:36:44.162Z,1.83
2022-09-21T01:37:09.564Z,1.85
2022-09-21T01:37:34.942Z,1.77
2022-09-21T01:38:01.069Z,1.90
2022-09-21T01:38:25.409Z,1.90
2022-09-21T01:38:51.419Z,1.80
2022-09-21T01:39:14.509Z,2.08
2022-09-21T01:39:40.251Z,1.80
2022-09-21T01:40:06.280Z,1.90
2022-09-21T01:40:35.394Z,2.03
2022-09-21T01:41:02.253Z,1.92
2022-09-21T01:41:26.358Z,1.95
2022-09-21T01:41:49.264Z,2.08
2022-09-21T01:42:14.224Z,1.88
2022-09-21T01:42:37.264Z,1.80
2022-09-21T01:43:03.004Z,1.75
2022-09-21T01:43:28.006Z,1.92
2022-09-21T01:43:51.840Z,1.98
2022-09-21T01:44:17.926Z,2.13
2022-09-21T01:44:40.638Z,1.98
2022-09-21T01:45:06.141Z,1.90
2022-09-21T01:45:30.373Z,2.05
2022-09-21T01:45:54.953Z,1.80
2022-09-21T01:46:18.950Z,2.10
2022-09-21T01:46:42.755Z,1.90
2022-09-21T01:47:06.255Z,1.90
2022-09-21T01:47:31.705Z,2.03
2022-09-21T01:47:55.379Z,1.98
2022-09-21T01:48:18.175Z,2.00
2022-09-21T01:48:42.251Z,2.10
2022-09-21T01:49:06.556Z,2.00
2022-09-21T01:49:31.841Z,1.98
2022-09-21T01:49:55.837Z,1.90
2022-09-21T01:50:18.736Z,1.90
2022-09-21T01:50:44.492Z,1.90
2022-09-21T01:51:08.911Z,2.00
2022-09-21T01:51:31.735Z,2.00
2022-09-21T01:51:58.280Z,1.80
2022-09-21T01:52:23.686Z,1.92
2022-09-21T01:52:49.084Z,1.88
2022-09-21T01:53:13.576Z,1.80
2022-09-21T01:53:37.438Z,1.92
2022-09-21T01:54:02.247Z,2.10
2022-09-21T01:54:27.405Z,1.95
2022-09-21T01:54:52.169Z,1.67
2022-09-21T01:55:16.926Z,1.70
2022-09-21T01:55:42.708Z,1.77
2022-09-21T01:56:07.354Z,1.83
2022-09-21T01:56:33.322Z,1.70
2022-09-21T01:56:59.060Z,1.65
2022-09-21T01:57:23.755Z,1.67
2022-09-21T01:57:52.519Z,1.77
2022-09-21T01:58:18.114Z,1.98
2022-09-21T01:58:43.210Z,1.85
2022-09-21T01:59:11.245Z,1.88
2022-09-21T01:59:38.565Z,1.90
2022-09-21T02:00:01.491Z,2.00
2022-09-21T02:00:26.760Z,1.60
2022-09-21T02:00:49.961Z,1.50
2022-09-21T02:01:13.198Z,1.67
2022-09-21T02:01:38.773Z,1.65
2022-09-21T02:02:03.694Z,1.70
2022-09-21T02:02:29.761Z,1.77
2022-09-21T02:02:55.436Z,1.55
2022-09-21T02:03:21.923Z,1.90
2022-09-21T02:03:45.513Z,1.83
2022-09-21T02:04:10.395Z,1.70
2022-09-21T02:04:35.403Z,1.88
2022-09-21T02:04:59.192Z,1.80
2022-09-21T02:05:23.026Z,1.70
2022-09-21T02:05:45.771Z,1.77
2022-09-21T02:06:08.429Z,1.90
2022-09-21T02:06:31.112Z,1.63
2022-09-21T02:06:53.902Z,1.60
2022-09-21T02:07:17.321Z,1.67
2022-09-21T02:07:40.031Z,1.70
2022-09-21T02:08:02.758Z,1.80
2022-09-21T02:08:28.089Z,1.90
2022-09-21T02:08:50.873Z,1.98
2022-09-21T02:09:13.557Z,1.70
2022-09-21T02:09:39.511Z,1.73
2022-09-21T02:10:03.116Z,1.90
2022-09-21T02:10:29.653Z,1.73
2022-09-21T02:10:52.769Z,1.70
2022-09-21T02:11:17.914Z,1.98
2022-09-21T02:11:44.156Z,1.70
2022-09-21T02:12:06.921Z,1.67
2022-09-21T02:12:32.268Z,1.60
2022-09-21T02:13:01.285Z,1.90
2022-09-21T02:13:25.441Z,1.73
2022-09-21T02:13:49.752Z,1.80
2022-09-21T02:14:13.115Z,1.80
2022-09-21T02:14:39.874Z,1.50
2022-09-21T02:15:02.524Z,1.80
2022-09-21T02:15:26.974Z,1.70
2022-09-21T02:15:58.742Z,1.85
2022-09-21T02:16:35.757Z,2.00
2022-09-21T02:17:06.323Z,1.80
2022-09-21T02:17:36.317Z,1.70
2022-09-21T02:18:01.926Z,2.00
2022-09-21T02:18:36.166Z,1.85
2022-09-21T02:19:09.616Z,1.67
2022-09-21T02:19:36.193Z,1.77
2022-09-21T02:20:06.031Z,1.70
2022-09-21T02:20:30.584Z,1.85
2022-09-21T02:20:57.187Z,1.77
2022-09-21T02:21:24.212Z,1.75
2022-09-21T02:21:55.191Z,1.90
2022-09-21T02:22:21.756Z,1.83
2022-09-21T02:22:57.622Z,1.75
2022-09-21T02:23:23.536Z,1.70
2022-09-21T02:23:49.416Z,1.70
2022-09-21T02:24:14.401Z,1.83
2022-09-21T02:24:43.692Z,1.90
2022-09-21T02:25:08.961Z,1.85
2022-09-21T02:25:40.327Z,1.70
2022-09-21T02:26:07.511Z,1.83
2022-09-21T02:26:32.925Z,1.80
2022-09-21T02:26:59.566Z,1.90
2022-09-21T02:27:26.812Z,2.05
2022-09-21T02:27:53.901Z,1.90
2022-09-21T02:28:21.634Z,1.65
2022-09-21T02:28:46.877Z,1.73
2022-09-21T02:29:17.593Z,1.80
2022-09-21T02:29:47.899Z,1.92
2022-09-21T02:30:13.977Z,1.83
2022-09-21T02:30:36.683Z,1.88
2022-09-21T02:31:02.486Z,1.77
2022-09-21T02:31:29.013Z,1.75
2022-09-21T02:31:53.716Z,1.70
2022-09-21T02:32:23.855Z,2.20
2022-09-21T02:32:50.518Z,1.90
2022-09-21T02:33:15.541Z,1.90
2022-09-21T02:33:44.807Z,1.70
2022-09-21T02:34:10.987Z,1.63
2022-09-21T02:34:35.566Z,1.90
2022-09-21T02:35:03.277Z,1.75
2022-09-21T02:35:32.241Z,1.80
2022-09-21T02:35:58.452Z,1.70
2022-09-21T02:36:22.706Z,1.60
2022-09-21T02:36:46.708Z,1.55
2022-09-21T02:37:15.711Z,1.90
2022-09-21T02:37:41.147Z,1.90
2022-09-21T02:38:08.413Z,1.98
2022-09-21T02:38:33.758Z,1.70
2022-09-21T02:39:01.145Z,1.80
2022-09-21T02:39:28.155Z,1.70
2022-09-21T02:39:56.335Z,1.80
2022-09-21T02:40:25.148Z,1.90
2022-09-21T02:40:51.795Z,2.00
2022-09-21T02:41:17.285Z,1.70
2022-09-21T02:41:45.770Z,1.90
2022-09-21T02:42:10.416Z,1.90
2022-09-21T02:42:35.251Z,1.80
2022-09-21T02:43:00.364Z,1.90
2022-09-21T02:43:26.227Z,1.80
2022-09-21T02:43:51.871Z,2.20
2022-09-21T02:44:18.707Z,1.65
2022-09-21T02:44:45.952Z,1.70
2022-09-21T02:45:11.342Z,1.88
2022-09-21T02:45:35.510Z,1.70
2022-09-21T02:46:00.482Z,1.85
2022-09-21T02:46:24.691Z,1.70
2022-09-21T02:46:53.678Z,1.60
2022-09-21T02:47:19.017Z,1.70
2022-09-21T02:47:44.312Z,1.73
2022-09-21T02:48:08.694Z,1.70
2022-09-21T02:48:33.683Z,1.88
2022-09-21T02:48:58.622Z,1.98
2022-09-21T02:49:22.568Z,1.70
2022-09-21T02:49:47.115Z,1.70
2022-09-21T02:50:12.961Z,1.85
2022-09-21T02:50:39.226Z,1.55
2022-09-21T02:51:05.356Z,1.67
2022-09-21T02:51:31.196Z,1.80
2022-09-21T02:51:54.992Z,2.00
2022-09-21T02:52:18.406Z,1.73
2022-09-21T02:52:41.850Z,1.70
2022-09-21T02:53:04.664Z,1.77
2022-09-21T02:53:29.284Z,1.70
2022-09-21T02:53:54.907Z,1.92
2022-09-21T02:54:19.192Z,1.85
2022-09-21T02:54:44.017Z,1.80
2022-09-21T02:55:07.031Z,1.77
2022-09-21T02:55:29.752Z,2.05
2022-09-21T02:55:56.327Z,1.92
2022-09-21T02:56:19.352Z,1.80
2022-09-21T02:56:42.072Z,1.60
2022-09-21T02:57:05.155Z,1.70
2022-09-21T02:57:27.843Z,1.60
2022-09-21T02:57:50.532Z,1.70
2022-09-21T02:58:14.555Z,1.90
2022-09-21T02:58:39.447Z,2.00
2022-09-21T02:59:04.577Z,1.88
2022-09-21T02:59:27.864Z,2.05
2022-09-21T02:59:52.092Z,1.70
2022-09-21T03:00:18.777Z,1.88
2022-09-21T03:00:41.497Z,1.98
2022-09-21T03:01:07.736Z,1.80
2022-09-21T03:01:33.187Z,1.60
2022-09-21T03:01:55.968Z,1.80
2022-09-21T03:02:18.729Z,1.90
2022-09-21T03:02:42.700Z,1.60
2022-09-21T03:03:17.290Z,1.80
2022-09-21T03:03:39.994Z,1.90
2022-09-21T03:04:02.709Z,1.98
2022-09-21T03:04:25.439Z,1.70
2022-09-21T03:04:48.334Z,1.70
2022-09-21T03:05:14.229Z,1.85
2022-09-21T03:05:36.894Z,2.10
2022-09-21T03:05:59.645Z,1.95
2022-09-21T03:06:22.422Z,1.80
2022-09-21T03:06:45.178Z,1.90
2022-09-21T03:07:10.139Z,1.70
2022-09-21T03:07:33.937Z,1.85
2022-09-21T03:07:56.659Z,2.05
2022-09-21T03:08:21.536Z,1.90
2022-09-21T03:08:44.269Z,1.98
2022-09-21T03:09:08.655Z,1.75
2022-09-21T03:09:31.462Z,1.73
2022-09-21T03:09:54.807Z,1.73
2022-09-21T03:10:19.783Z,1.90
2022-09-21T03:10:42.527Z,1.90
2022-09-21T03:11:05.527Z,1.70
2022-09-21T03:11:28.161Z,1.88
2022-09-21T03:11:50.932Z,1.70
2022-09-21T03:12:14.250Z,1.80
2022-09-21T03:12:39.202Z,1.80
2022-09-21T03:13:01.915Z,1.88
2022-09-21T03:13:24.695Z,1.77
2022-09-21T03:13:47.389Z,1.70
2022-09-21T03:14:10.530Z,1.60
2022-09-21T03:14:33.411Z,1.90
2022-09-21T03:14:57.530Z,1.90
2022-09-21T03:15:20.260Z,1.77
2022-09-21T03:15:45.276Z,1.77
2022-09-21T03:16:08.105Z,1.75
2022-09-21T03:16:30.912Z,1.55
2022-09-21T03:16:54.922Z,1.42
2022-09-21T03:17:17.597Z,1.60
2022-09-21T03:17:42.731Z,1.83
2022-09-21T03:18:05.931Z,1.60
2022-09-21T03:18:28.816Z,1.60
2022-09-21T03:18:51.609Z,1.42
2022-09-21T03:19:15.082Z,1.48
2022-09-21T03:19:37.721Z,1.50
2022-09-21T03:20:00.441Z,1.63
2022-09-21T03:20:23.222Z,1.70
2022-09-21T03:20:48.886Z,1.60
2022-09-21T03:21:11.852Z,1.63
2022-09-21T03:21:34.901Z,1.60
2022-09-21T03:21:57.826Z,1.80
2022-09-21T03:22:21.366Z,1.70
2022-09-21T03:22:44.054Z,1.60
2022-09-21T03:23:07.043Z,1.80
2022-09-21T03:23:29.824Z,1.70
2022-09-21T03:23:54.984Z,1.63
2022-09-21T03:24:37.688Z,1.50
2022-09-21T03:25:00.364Z,1.73
2022-09-21T03:25:23.084Z,1.70
2022-09-21T03:25:46.426Z,1.77
2022-09-21T03:26:09.111Z,1.70
2022-09-21T03:26:32.526Z,1.70
2022-09-21T03:26:55.188Z,1.75
2022-09-21T03:27:21.025Z,1.90
2022-09-21T03:27:43.685Z,1.67
2022-09-21T03:28:08.743Z,1.58
2022-09-21T03:28:31.513Z,1.80
2022-09-21T03:28:54.972Z,1.50
2022-09-21T03:29:17.979Z,1.48
2022-09-21T03:29:40.654Z,1.60
2022-09-21T03:30:06.250Z,1.75
2022-09-21T03:30:29.425Z,1.70
2022-09-21T03:30:52.301Z,1.50
2022-09-21T03:31:15.056Z,1.50
2022-09-21T03:31:37.744Z,1.50
2022-09-21T03:32:00.658Z,1.73
2022-09-21T03:32:23.337Z,1.70
2022-09-21T03:32:46.014Z,1.50
2022-09-21T03:33:08.798Z,1.60
2022-09-21T03:33:31.669Z,1.65
2022-09-21T03:33:54.549Z,1.42
2022-09-21T03:34:17.217Z,1.90
2022-09-21T03:34:42.408Z,2.00
2022-09-21T03:35:08.803Z,1.80
2022-09-21T03:35:34.117Z,1.80
2022-09-21T03:35:56.737Z,1.60
2022-09-21T03:36:19.678Z,1.40
2022-09-21T03:36:42.358Z,1.63
2022-09-21T03:37:05.878Z,2.10
2022-09-21T03:37:29.438Z,1.75
2022-09-21T03:37:52.153Z,1.80
2022-09-21T03:38:17.088Z,1.65
2022-09-21T03:38:40.025Z,1.60
2022-09-21T03:39:05.204Z,1.80
2022-09-21T03:39:27.924Z,2.00
2022-09-21T03:39:50.558Z,1.80
2022-09-21T03:40:13.428Z,1.60
2022-09-21T03:40:36.120Z,1.80
2022-09-21T03:40:58.878Z,1.80
2022-09-21T03:41:21.607Z,1.60
2022-09-21T03:41:44.819Z,1.85
2022-09-21T03:42:10.076Z,1.98
2022-09-21T03:42:35.799Z,1.90
2022-09-21T03:42:58.587Z,1.70
2022-09-21T03:43:21.459Z,1.63
2022-09-21T03:43:44.209Z,1.88
2022-09-21T03:44:09.459Z,1.90
2022-09-21T03:44:32.169Z,1.95
2022-09-21T03:44:54.873Z,2.03
2022-09-21T03:45:19.019Z,2.10
2022-09-21T03:45:42.145Z,1.90
2022-09-21T03:46:05.155Z,1.90
2022-09-21T03:46:28.684Z,1.80
2022-09-21T03:46:51.425Z,1.80
2022-09-21T03:47:14.109Z,2.10
2022-09-21T03:47:36.833Z,1.88
2022-09-21T03:47:59.878Z,1.80
2022-09-21T03:48:24.745Z,1.88
2022-09-21T03:48:48.689Z,1.80
2022-09-21T03:49:13.557Z,1.65
2022-09-21T03:49:39.348Z,1.60
2022-09-21T03:50:03.207Z,1.70
2022-09-21T03:50:28.688Z,1.80
2022-09-21T03:50:51.458Z,1.80
2022-09-21T03:51:14.721Z,1.60
2022-09-21T03:51:39.670Z,1.52
2022-09-21T03:52:06.063Z,1.90
2022-09-21T03:52:31.119Z,1.90
2022-09-21T03:52:53.868Z,1.85
2022-09-21T03:53:16.657Z,1.80
2022-09-21T03:53:42.081Z,1.80
2022-09-21T03:54:05.012Z,1.77
2022-09-21T03:54:30.016Z,1.60
2022-09-21T03:54:52.706Z,1.83
2022-09-21T03:55:17.926Z,1.90
2022-09-21T03:55:40.667Z,1.80
2022-09-21T03:56:03.392Z,1.70
2022-09-21T03:56:28.316Z,1.73
2022-09-21T03:56:53.553Z,1.60
2022-09-21T03:57:18.727Z,2.00
2022-09-21T03:57:43.601Z,1.80
2022-09-21T03:58:08.556Z,1.88
2022-09-21T03:58:31.211Z,1.80
2022-09-21T03:58:56.451Z,1.80
2022-09-21T03:59:24.107Z,1.73
2022-09-21T03:59:46.746Z,2.03
2022-09-21T04:00:12.831Z,1.85
2022-09-21T04:00:38.279Z,1.90
2022-09-21T04:01:02.935Z,1.80
2022-09-21T04:01:26.038Z,1.80
2022-09-21T04:01:51.136Z,1.90
2022-09-21T04:02:13.899Z,1.90
2022-09-21T04:02:36.713Z,2.00
2022-09-21T04:03:01.656Z,1.90
2022-09-21T04:03:24.487Z,1.67
2022-09-21T04:03:49.356Z,1.85
2022-09-21T04:04:12.092Z,1.85
2022-09-21T04:04:34.839Z,1.95
2022-09-21T04:04:59.870Z,2.00
2022-09-21T04:05:22.666Z,1.90
2022-09-21T04:05:47.676Z,2.00
2022-09-21T04:06:10.866Z,1.73
2022-09-21T04:06:35.838Z,1.88
2022-09-21T04:06:59.356Z,2.00
2022-09-21T04:07:24.251Z,1.90
2022-09-21T04:07:49.935Z,1.95
2022-09-21T04:08:12.795Z,1.80
2022-09-21T04:08:35.504Z,1.90
2022-09-21T04:09:00.432Z,1.85
2022-09-21T04:09:23.688Z,1.80
2022-09-21T04:09:48.578Z,2.08
2022-09-21T04:10:17.809Z,2.20
2022-09-21T04:10:42.743Z,2.13
2022-09-21T04:11:12.250Z,1.95
2022-09-21T04:11:36.182Z,1.67
2022-09-21T04:12:01.403Z,1.77
2022-09-21T04:12:27.327Z,1.85
2022-09-21T04:12:52.203Z,1.88
2022-09-21T04:13:15.084Z,1.80
2022-09-21T04:13:40.125Z,1.90
2022-09-21T04:14:05.125Z,1.70
2022-09-21T04:14:27.824Z,1.75
2022-09-21T04:14:52.743Z,1.70
2022-09-21T04:15:19.245Z,1.95
2022-09-21T04:15:43.475Z,1.88
2022-09-21T04:16:08.790Z,1.70
2022-09-21T04:16:31.518Z,1.70
2022-09-21T04:16:56.486Z,1.63
2022-09-21T04:17:19.524Z,1.73
2022-09-21T04:17:42.238Z,1.90
2022-09-21T04:18:07.319Z,1.88
2022-09-21T04:18:30.084Z,1.80
2022-09-21T04:18:52.810Z,1.90
2022-09-21T04:19:16.705Z,1.95
2022-09-21T04:19:41.765Z,1.83
2022-09-21T04:20:05.678Z,1.85
2022-09-21T04:20:28.640Z,1.88
2022-09-21T04:20:51.358Z,1.90
2022-09-21T04:21:14.120Z,1.80
2022-09-21T04:21:36.709Z,1.88
2022-09-21T04:21:59.489Z,1.90
2022-09-21T04:22:25.158Z,2.10
2022-09-21T04:22:47.948Z,2.28
2022-09-21T04:23:13.877Z,2.22
2022-09-21T04:23:36.812Z,2.50
2022-09-21T04:23:59.504Z,2.38
2022-09-21T04:24:22.159Z,2.40
2022-09-21T04:24:44.935Z,2.53
2022-09-21T04:25:10.804Z,2.50
2022-09-21T04:25:33.701Z,2.40
2022-09-21T04:25:58.249Z,2.13
2022-09-21T04:26:25.446Z,2.20
2022-09-21T04:26:50.714Z,2.50
2022-09-21T04:27:13.444Z,2.40
2022-09-21T04:27:36.184Z,2.20
2022-09-21T04:28:01.074Z,2.30
2022-09-21T04:28:23.885Z,2.30
2022-09-21T04:28:49.070Z,2.20
2022-09-21T04:29:14.532Z,1.95
2022-09-21T04:29:37.247Z,1.80
2022-09-21T04:29:59.958Z,1.77
2022-09-21T04:30:22.661Z,1.92
2022-09-21T04:30:49.121Z,2.20
2022-09-21T04:31:14.457Z,2.28
2022-09-21T04:31:37.218Z,2.03
2022-09-21T04:31:59.993Z,1.80
2022-09-21T04:32:25.112Z,1.80
2022-09-21T04:32:47.935Z,1.95
2022-09-21T04:33:10.567Z,1.70
2022-09-21T04:33:35.813Z,1.80
2022-09-21T04:33:58.597Z,1.90
2022-09-21T04:34:21.567Z,2.00
2022-09-21T04:34:44.868Z,2.30
2022-09-21T04:35:08.734Z,2.00
2022-09-21T04:35:31.417Z,1.75
2022-09-21T04:35:57.032Z,1.83
2022-09-21T04:36:20.059Z,2.22
2022-09-21T04:36:43.678Z,2.10
2022-09-21T04:37:08.342Z,1.77
2022-09-21T04:37:31.027Z,1.77
2022-09-21T04:37:56.322Z,1.70
2022-09-21T04:38:19.025Z,1.77
2022-09-21T04:38:41.703Z,1.73
2022-09-21T04:39:07.497Z,1.73
2022-09-21T04:39:30.128Z,1.80
2022-09-21T04:39:55.282Z,1.80
2022-09-21T04:40:18.106Z,1.67
2022-09-21T04:40:40.887Z,1.80
2022-09-21T04:41:04.163Z,1.80
2022-09-21T04:41:27.222Z,1.90
2022-09-21T04:41:50.004Z,1.83
2022-09-21T04:42:13.277Z,1.80
2022-09-21T04:42:35.948Z,1.50
2022-09-21T04:42:58.757Z,1.70
2022-09-21T04:43:22.727Z,1.67
2022-09-21T04:43:46.287Z,1.80
2022-09-21T04:44:09.448Z,2.03
2022-09-21T04:44:32.207Z,2.10
2022-09-21T04:44:54.899Z,2.00
2022-09-21T04:45:17.652Z,1.88
2022-09-21T04:45:40.947Z,1.73
2022-09-21T04:46:08.606Z,1.77
2022-09-21T04:46:31.517Z,1.70
2022-09-21T04:46:57.650Z,1.80
2022-09-21T04:47:23.687Z,1.70
2022-09-21T04:47:46.388Z,1.90
2022-09-21T04:48:12.053Z,1.77
2022-09-21T04:48:35.022Z,1.90
2022-09-21T04:48:59.952Z,1.85
2022-09-21T04:49:22.657Z,1.90
2022-09-21T04:49:45.287Z,1.58
2022-09-21T04:50:10.023Z,1.80
2022-09-21T04:50:32.828Z,1.80
2022-09-21T04:50:55.509Z,1.75
2022-09-21T04:51:18.229Z,1.80
2022-09-21T04:51:41.003Z,1.80
2022-09-21T04:52:03.932Z,1.88
2022-09-21T04:52:26.672Z,1.88
2022-09-21T04:52:49.772Z,1.70
2022-09-21T04:53:12.465Z,1.73
2022-09-21T04:53:35.282Z,1.95
2022-09-21T04:54:00.401Z,1.80
2022-09-21T04:54:23.087Z,1.80
2022-09-21T04:54:46.232Z,1.67
2022-09-21T04:55:09.276Z,1.70
2022-09-21T04:55:32.027Z,1.85
2022-09-21T04:55:55.672Z,1.95
2022-09-21T04:56:18.421Z,1.70
2022-09-21T04:56:41.142Z,1.70
2022-09-21T04:57:04.050Z,1.85
2022-09-21T04:57:26.872Z,2.00
2022-09-21T04:57:49.628Z,1.90
2022-09-21T04:58:12.548Z,1.90
2022-09-21T04:58:35.296Z,1.80
2022-09-21T04:58:58.216Z,1.90
2022-09-21T04:59:20.997Z,1.80
2022-09-21T04:59:43.661Z,1.98
2022-09-21T05:00:07.662Z,2.00
2022-09-21T05:00:30.567Z,2.00
2022-09-21T05:00:53.873Z,1.73
2022-09-21T05:01:18.161Z,1.80
2022-09-21T05:01:41.056Z,1.80
2022-09-21T05:02:03.792Z,1.80
2022-09-21T05:02:26.602Z,1.85
2022-09-21T05:02:51.727Z,1.80
2022-09-21T05:03:14.447Z,2.00
2022-09-21T05:03:37.202Z,1.90
2022-09-21T05:04:02.476Z,1.90
2022-09-21T05:04:25.182Z,1.70
2022-09-21T05:04:50.951Z,1.80
2022-09-21T05:05:13.997Z,1.92
2022-09-21T05:05:36.717Z,1.80
2022-09-21T05:05:59.851Z,1.70
2022-09-21T05:06:22.508Z,1.70
2022-09-21T05:06:45.202Z,1.60
2022-09-21T05:07:07.922Z,1.80
2022-09-21T05:07:30.612Z,2.20
2022-09-21T05:07:53.300Z,2.20
2022-09-21T05:08:18.194Z,2.10
2022-09-21T05:09:00.572Z,1.77
2022-09-21T05:09:41.662Z,1.73
2022-09-21T05:10:05.158Z,1.80
2022-09-21T05:10:27.884Z,1.80
2022-09-21T05:10:50.637Z,2.00
2022-09-21T05:11:24.593Z,2.20
2022-09-21T05:11:47.307Z,1.90
2022-09-21T05:12:10.392Z,1.80
2022-09-21T05:12:39.680Z,2.10
2022-09-21T05:13:03.887Z,1.98
2022-09-21T05:13:28.817Z,1.73
2022-09-21T05:13:51.512Z,1.70
2022-09-21T05:14:15.402Z,1.67
2022-09-21T05:14:38.122Z,1.98
2022-09-21T05:15:00.882Z,1.77
2022-09-21T05:15:23.691Z,1.98
2022-09-21T05:15:46.421Z,2.00
2022-09-21T05:16:09.214Z,1.83
2022-09-21T05:16:35.832Z,1.90
2022-09-21T05:16:58.614Z,2.22
2022-09-21T05:17:22.987Z,2.15
2022-09-21T05:17:46.765Z,1.90
2022-09-21T05:18:09.437Z,2.08
2022-09-21T05:18:32.142Z,2.10
2022-09-21T05:18:57.505Z,2.70
2022-09-21T05:19:20.237Z,2.70
2022-09-21T05:19:42.912Z,2.60
2022-09-21T05:20:06.793Z,2.35
2022-09-21T05:20:29.587Z,2.08
2022-09-21T05:20:54.513Z,2.00
2022-09-21T05:21:17.287Z,2.10
2022-09-21T05:21:40.003Z,2.15
2022-09-21T05:22:02.707Z,2.30
2022-09-21T05:22:27.507Z,2.40
2022-09-21T05:22:50.520Z,2.33
2022-09-21T05:23:16.904Z,2.28
2022-09-21T05:23:39.714Z,2.50
2022-09-21T05:24:02.787Z,2.40
2022-09-21T05:24:25.625Z,2.10
2022-09-21T05:24:48.466Z,2.30
2022-09-21T05:25:11.243Z,2.30
2022-09-21T05:25:34.909Z,2.13
2022-09-21T05:25:57.696Z,2.50
2022-09-21T05:26:20.356Z,2.20
2022-09-21T05:26:43.031Z,2.30
2022-09-21T05:27:06.177Z,2.00
2022-09-21T05:27:28.951Z,2.08
2022-09-21T05:27:51.731Z,2.20
2022-09-21T05:28:15.011Z,2.13
2022-09-21T05:28:40.227Z,2.25
2022-09-21T05:29:04.498Z,2.17
2022-09-21T05:29:27.706Z,2.20
2022-09-21T05:29:51.157Z,2.25
2022-09-21T05:30:15.642Z,2.30